Storm Events Database

Event Details

Event Hail
Magnitude 1.00 in.
State TEXAS
County/Area COLLIN
WFO FWD
Report Source Amateur Radio
NCDC Data Source CSV
Begin Date 2011-04-26 16:28:00.0 CST-6
Begin Location 0N WYLIE
Begin Lat/Lon 33.02/-96.55
End Date 2011-04-26 16:28:00.0 CST-6
Deaths Direct/Indirect 0/0 (fatality details below, when available...)
Injuries Direct/Indirect 0/0
Property Damage 0.00K
Crop Damage 0.00K
Episode Narrative Another round of severe weather occurred on April 26th as another upper level disturbance rounded a larger upper trough and moved into north Texas. A warm front was draped across the region, and the environment was conducive for supercell thunderstorms and tornadoes. Numerous reports of large hail and damaging winds were reported. There were 10 tornadoes confirmed on April 26th, with two rated EF-1 and the remaining rated EF-0. One EF-1 tornado occurred in Van Zandt County, near Ben Wheeler, and tracked nearly 8 miles. The winds were estimated to be near 100 MPH with this tornado. The other EF-1 tornado occurred in downtown Groesbeck causing damage to several buildings.
Event Narrative


     ‚Äč



All events for this episode:

Location County/Zone St. Date Time T.Z. Type Mag Dth Inj PrD CrD
Totals: 0 1 1.546M 0.00K
GRANDVIEW JOHNSON CO. TX 04/26/2011 14:08 CST-6 Hail 1.00 in. 0 0 0.00K 0.00K
MIDLOTHIAN ELLIS CO. TX 04/26/2011 14:25 CST-6 Hail 0.75 in. 0 0 0.00K 0.00K
WAXAHACHIE ELLIS CO. TX 04/26/2011 14:39 CST-6 Thunderstorm Wind 56 kts. EG 0 0 0.00K 0.00K
WAXAHACHIE ELLIS CO. TX 04/26/2011 14:39 CST-6 Hail 1.00 in. 0 0 0.00K 0.00K
BARDWELL ELLIS CO. TX 04/26/2011 14:40 CST-6 Hail 1.00 in. 0 0 0.00K 0.00K
BARDWELL ELLIS CO. TX 04/26/2011 14:40 CST-6 Thunderstorm Wind 52 kts. EG 0 0 0.00K 0.00K
WAXAHACHIE ELLIS CO. TX 04/26/2011 14:51 CST-6 Hail 1.00 in. 0 0 0.00K 0.00K
GARRETT ELLIS CO. TX 04/26/2011 14:55 CST-6 Hail 1.75 in. 0 0 15.00K 0.00K
ENNIS ELLIS CO. TX 04/26/2011 14:57 CST-6 Hail 1.50 in. 0 0 15.00K 0.00K
BELMENA MILAM CO. TX 04/26/2011 15:01 CST-6 Hail 1.00 in. 0 0 0.00K 0.00K
ENNIS ELLIS CO. TX 04/26/2011 15:05 CST-6 Hail 1.00 in. 0 0 0.00K 0.00K
ENNIS ELLIS CO. TX 04/26/2011 15:05 CST-6 Thunderstorm Wind 52 kts. EG 0 0 0.00K 0.00K
BONO JOHNSON CO. TX 04/26/2011 15:15 CST-6 Hail 1.75 in. 0 0 10.00K 0.00K
ALVARADO HARDGRAVE A JOHNSON CO. TX 04/26/2011 15:27 CST-6 Hail 1.00 in. 0 0 0.00K 0.00K
VENUS JOHNSON CO. TX 04/26/2011 15:32 CST-6 Hail 0.88 in. 0 0 0.00K 0.00K
VENUS JOHNSON CO. TX 04/26/2011 15:34 CST-6 Hail 1.00 in. 0 0 0.00K 0.00K
JEWETT LEON CO. TX 04/26/2011 15:35 CST-6 Hail 1.00 in. 0 0 0.00K 0.00K
DEANWRIGHT ANDERSON CO. TX 04/26/2011 15:43 CST-6 Hail 1.00 in. 0 0 0.00K 0.00K
MIDLOTHIAN ELLIS CO. TX 04/26/2011 15:43 CST-6 Hail 1.00 in. 0 0 0.00K 0.00K
LONE ELM ELLIS CO. TX 04/26/2011 15:47 CST-6 Hail 1.75 in. 0 0 3.00K 0.00K
HEARNE ROBERTSON CO. TX 04/26/2011 15:51 CST-6 Hail 1.00 in. 0 0 0.00K 0.00K
ROCKETT ELLIS CO. TX 04/26/2011 15:55 CST-6 Hail 1.00 in. 0 0 0.00K 0.00K
TOLOSA KAUFMAN CO. TX 04/26/2011 15:56 CST-6 Tornado EF0 0 0 5.00K 0.00K
RODDY VAN ZANDT CO. TX 04/26/2011 16:00 CST-6 Thunderstorm Wind 70 kts. EG 0 0 800.00K 0.00K
WHEELOCK ROBERTSON CO. TX 04/26/2011 16:05 CST-6 Hail 1.00 in. 0 0 0.00K 0.00K
LONE ELM ELLIS CO. TX 04/26/2011 16:07 CST-6 Hail 1.00 in. 0 0 0.00K 0.00K
ROBBINS LEON CO. TX 04/26/2011 16:10 CST-6 Hail 1.75 in. 0 0 1.00K 0.00K
SERVICE ELLIS CO. TX 04/26/2011 16:11 CST-6 Hail 1.00 in. 0 0 0.00K 0.00K
HILLSBORO HILL CO. TX 04/26/2011 16:16 CST-6 Hail 0.50 in. 0 0 0.10K 0.00K
HILLSBORO HILL CO. TX 04/26/2011 16:16 CST-6 Hail 1.00 in. 0 0 0.00K 0.00K
AVALON ELLIS CO. TX 04/26/2011 16:25 CST-6 Hail 1.00 in. 0 0 0.00K 0.00K
SACHSE DALLAS CO. TX 04/26/2011 16:26 CST-6 Hail 1.25 in. 0 0 0.00K 0.00K
SACHSE DALLAS CO. TX 04/26/2011 16:26 CST-6 Hail 1.00 in. 0 0 0.00K 0.00K
WYLIE COLLIN CO. TX 04/26/2011 16:28 CST-6 Hail 1.00 in. 0 0 0.00K 0.00K
FROST NAVARRO CO. TX 04/26/2011 16:44 CST-6 Hail 1.75 in. 0 0 3.00K 0.00K
BEN WHEELER VAN ZANDT CO. TX 04/26/2011 16:45 CST-6 Tornado EF1 0 1 200.00K 0.00K
BLOOMING GROVE NAVARRO CO. TX 04/26/2011 16:48 CST-6 Hail 1.75 in. 0 0 2.00K 0.00K
MABANK KAUFMAN CO. TX 04/26/2011 17:01 CST-6 Tornado EF0 0 0 30.00K 0.00K
CUMBY HOPKINS CO. TX 04/26/2011 17:10 CST-6 Hail 1.25 in. 0 0 0.00K 0.00K
TOOL HENDERSON CO. TX 04/26/2011 17:20 CST-6 Hail 1.00 in. 0 0 0.00K 0.00K
MABANK KAUFMAN CO. TX 04/26/2011 17:23 CST-6 Tornado EF0 0 0 0.00K 0.00K
NORTHCREST MCLENNAN CO. TX 04/26/2011 17:33 CST-6 Hail 1.75 in. 0 0 4.00K 0.00K
ROXTON LAMAR CO. TX 04/26/2011 17:35 CST-6 Hail 1.75 in. 0 0 4.00K 0.00K
LACY LAKEVIEW MCLENNAN CO. TX 04/26/2011 17:36 CST-6 Hail 2.75 in. 0 0 50.00K 0.00K
MART MCLENNAN CO. TX 04/26/2011 17:50 CST-6 Hail 1.25 in. 0 0 0.00K 0.00K
PARKS LAMAR CO. TX 04/26/2011 17:50 CST-6 Hail 1.75 in. 0 0 15.00K 0.00K
BLOSSOM LAMAR CO. TX 04/26/2011 17:52 CST-6 Hail 1.75 in. 0 0 5.00K 0.00K
DRANE NAVARRO CO. TX 04/26/2011 17:55 CST-6 Thunderstorm Wind 65 kts. EG 0 0 30.00K 0.00K
TRADING HOUSE RES MCLENNAN CO. TX 04/26/2011 17:57 CST-6 Thunderstorm Wind 61 kts. EG 0 0 0.00K 0.00K
CORSICANA MUNI ARPT NAVARRO CO. TX 04/26/2011 18:15 CST-6 Thunderstorm Wind 70 kts. EG 0 0 25.00K 0.00K
HESTER NAVARRO CO. TX 04/26/2011 18:15 CST-6 Tornado EF0 0 0 0.00K 0.00K
GROESBECK LIMESTONE CO. TX 04/26/2011 18:35 CST-6 Tornado EF1 0 0 150.00K 0.00K
LOST PRAIRIE LIMESTONE CO. TX 04/26/2011 18:48 CST-6 Tornado EF0 0 0 0.00K 0.00K
WAXAHACHIE ELLIS CO. TX 04/26/2011 18:50 CST-6 Hail 0.88 in. 0 0 0.00K 0.00K
STREETMAN FREESTONE CO. TX 04/26/2011 19:00 CST-6 Thunderstorm Wind 56 kts. EG 0 0 5.00K 0.00K
NORTHCREST MCLENNAN CO. TX 04/26/2011 19:23 CST-6 Hail 2.75 in. 0 0 20.00K 0.00K
ECHOLS LIMESTONE CO. TX 04/26/2011 19:25 CST-6 Thunderstorm Wind 70 kts. EG 0 0 75.00K 0.00K
ELM MOTT MCLENNAN CO. TX 04/26/2011 19:25 CST-6 Hail 1.75 in. 0 0 4.00K 0.00K
LEROY MCLENNAN CO. TX 04/26/2011 19:28 CST-6 Tornado EF0 0 0 0.00K 0.00K
LEROY MCLENNAN CO. TX 04/26/2011 19:31 CST-6 Hail 1.00 in. 0 0 0.00K 0.00K
RED OAK ELLIS CO. TX 04/26/2011 19:35 CST-6 Hail 1.00 in. 0 0 0.00K 0.00K
LEROY MCLENNAN CO. TX 04/26/2011 19:36 CST-6 Hail 1.75 in. 0 0 4.00K 0.00K
TRADING HOUSE RES MCLENNAN CO. TX 04/26/2011 19:53 CST-6 Tornado EF0 0 0 0.00K 0.00K
BELLMEAD MCLENNAN CO. TX 04/26/2011 19:55 CST-6 Hail 1.50 in. 0 0 20.00K 0.00K
WACO MCLENNAN CO. TX 04/26/2011 19:58 CST-6 Hail 1.75 in. 0 0 25.00K 0.00K
PALESTINE ANDERSON CO. TX 04/26/2011 20:05 CST-6 Thunderstorm Wind 50 kts. EG 0 0 0.00K 0.00K
(ACT)MADISON-COOPER MCLENNAN CO. TX 04/26/2011 20:06 CST-6 Hail 0.88 in. 0 0 0.00K 0.00K
THORNTON LIMESTONE CO. TX 04/26/2011 20:57 CST-6 Tornado EF0 0 0 0.00K 0.00K
PERRY FALLS CO. TX 04/26/2011 21:01 CST-6 Hail 1.00 in. 0 0 0.00K 0.00K
THORNTON LIMESTONE CO. TX 04/26/2011 21:30 CST-6 Heavy Rain 0 0 25.00K 0.00K
CENTERVILLE LEON CO. TX 04/26/2011 22:40 CST-6 Hail 1.75 in. 0 0 1.00K 0.00K
CENTERVILLE LEON CO. TX 04/26/2011 22:44 CST-6 Hail 1.25 in. 0 0 0.00K 0.00K
Totals: 0 1 1.546M 0.00K